sensor_id;sensor_type;location;lat;lon;timestamp;temperature;humidity
66722;SHT31;53633;49.932;10.884;2022-07-29T00:02:11;21.09;43.99
66722;SHT31;53633;49.932;10.884;2022-07-29T00:04:38;21.15;44.23
66722;SHT31;53633;49.932;10.884;2022-07-29T00:07:06;20.99;44.04
66722;SHT31;53633;49.932;10.884;2022-07-29T00:09:33;20.98;44.02
66722;SHT31;53633;49.932;10.884;2022-07-29T00:12:18;20.84;44.51
66722;SHT31;53633;49.932;10.884;2022-07-29T00:14:51;20.90;44.61
66722;SHT31;53633;49.932;10.884;2022-07-29T00:17:18;20.94;44.49
66722;SHT31;53633;49.932;10.884;2022-07-29T00:19:45;20.92;44.34
66722;SHT31;53633;49.932;10.884;2022-07-29T00:22:13;20.92;44.95
66722;SHT31;53633;49.932;10.884;2022-07-29T00:24:40;21.01;44.85
66722;SHT31;53633;49.932;10.884;2022-07-29T00:27:07;21.04;44.91
66722;SHT31;53633;49.932;10.884;2022-07-29T00:29:33;20.84;45.21
66722;SHT31;53633;49.932;10.884;2022-07-29T00:32:01;20.84;45.05
66722;SHT31;53633;49.932;10.884;2022-07-29T00:34:28;20.95;45.37
66722;SHT31;53633;49.932;10.884;2022-07-29T00:36:55;20.87;45.58
66722;SHT31;53633;49.932;10.884;2022-07-29T00:39:23;20.64;45.86
66722;SHT31;53633;49.932;10.884;2022-07-29T00:41:56;20.26;46.74
66722;SHT31;53633;49.932;10.884;2022-07-29T00:44:22;20.49;46.72
66722;SHT31;53633;49.932;10.884;2022-07-29T00:46:49;20.67;46.00
66722;SHT31;53633;49.932;10.884;2022-07-29T00:49:16;20.50;45.63
66722;SHT31;53633;49.932;10.884;2022-07-29T00:51:42;20.42;46.66
66722;SHT31;53633;49.932;10.884;2022-07-29T00:54:09;20.57;46.36
66722;SHT31;53633;49.932;10.884;2022-07-29T00:56:37;20.49;46.92
66722;SHT31;53633;49.932;10.884;2022-07-29T00:59:04;20.61;46.68
66722;SHT31;53633;49.932;10.884;2022-07-29T01:01:30;20.53;46.91
66722;SHT31;53633;49.932;10.884;2022-07-29T01:03:57;20.57;46.32
66722;SHT31;53633;49.932;10.884;2022-07-29T01:06:24;20.53;46.56
66722;SHT31;53633;49.932;10.884;2022-07-29T01:08:51;20.39;47.07
66722;SHT31;53633;49.932;10.884;2022-07-29T01:11:18;20.47;47.01
66722;SHT31;53633;49.932;10.884;2022-07-29T01:13:47;20.52;46.58
66722;SHT31;53633;49.932;10.884;2022-07-29T01:16:18;20.25;47.02
66722;SHT31;53633;49.932;10.884;2022-07-29T01:18:49;20.21;47.73
66722;SHT31;53633;49.932;10.884;2022-07-29T01:21:32;20.33;47.51
66722;SHT31;53633;49.932;10.884;2022-07-29T01:24:14;20.06;47.33
66722;SHT31;53633;49.932;10.884;2022-07-29T01:26:49;20.36;47.06
66722;SHT31;53633;49.932;10.884;2022-07-29T01:29:24;20.30;47.06
66722;SHT31;53633;49.932;10.884;2022-07-29T01:32:07;20.22;47.50
66722;SHT31;53633;49.932;10.884;2022-07-29T01:34:55;20.42;46.65
66722;SHT31;53633;49.932;10.884;2022-07-29T01:37:26;20.25;47.09
66722;SHT31;53633;49.932;10.884;2022-07-29T01:39:56;20.25;47.53
66722;SHT31;53633;49.932;10.884;2022-07-29T01:42:28;20.19;47.48
66722;SHT31;53633;49.932;10.884;2022-07-29T01:45:00;20.36;46.90
66722;SHT31;53633;49.932;10.884;2022-07-29T01:47:33;20.13;47.31
66722;SHT31;53633;49.932;10.884;2022-07-29T01:50:04;20.12;47.67
66722;SHT31;53633;49.932;10.884;2022-07-29T01:52:36;20.28;47.28
66722;SHT31;53633;49.932;10.884;2022-07-29T01:55:07;20.23;47.96
66722;SHT31;53633;49.932;10.884;2022-07-29T01:57:37;20.02;47.76
66722;SHT31;53633;49.932;10.884;2022-07-29T02:00:08;20.19;47.72
66722;SHT31;53633;49.932;10.884;2022-07-29T02:02:37;20.11;47.95
66722;SHT31;53633;49.932;10.884;2022-07-29T02:05:07;19.95;48.32
66722;SHT31;53633;49.932;10.884;2022-07-29T02:07:36;20.18;48.21
66722;SHT31;53633;49.932;10.884;2022-07-29T02:10:04;20.15;47.94
66722;SHT31;53633;49.932;10.884;2022-07-29T02:12:32;19.74;48.35
66722;SHT31;53633;49.932;10.884;2022-07-29T02:15:01;19.84;48.89
66722;SHT31;53633;49.932;10.884;2022-07-29T02:17:33;19.99;48.65
66722;SHT31;53633;49.932;10.884;2022-07-29T02:20:08;19.84;48.42
66722;SHT31;53633;49.932;10.884;2022-07-29T02:22:38;19.75;47.88
66722;SHT31;53633;49.932;10.884;2022-07-29T02:25:07;19.49;49.31
66722;SHT31;53633;49.932;10.884;2022-07-29T02:27:40;19.39;48.84
66722;SHT31;53633;49.932;10.884;2022-07-29T02:30:08;19.33;48.94
66722;SHT31;53633;49.932;10.884;2022-07-29T02:32:37;19.53;48.96
66722;SHT31;53633;49.932;10.884;2022-07-29T02:35:07;20.01;48.10
66722;SHT31;53633;49.932;10.884;2022-07-29T02:37:36;19.89;48.11
66722;SHT31;53633;49.932;10.884;2022-07-29T02:40:04;19.71;48.64
66722;SHT31;53633;49.932;10.884;2022-07-29T02:42:33;19.84;48.37
66722;SHT31;53633;49.932;10.884;2022-07-29T02:45:01;19.96;48.58
66722;SHT31;53633;49.932;10.884;2022-07-29T02:47:41;19.94;48.51
66722;SHT31;53633;49.932;10.884;2022-07-29T02:50:11;19.57;49.06
66722;SHT31;53633;49.932;10.884;2022-07-29T02:52:41;19.74;49.79
66722;SHT31;53633;49.932;10.884;2022-07-29T02:55:15;19.87;47.92
66722;SHT31;53633;49.932;10.884;2022-07-29T02:57:44;19.96;49.33
66722;SHT31;53633;49.932;10.884;2022-07-29T03:00:21;20.01;50.02
66722;SHT31;53633;49.932;10.884;2022-07-29T03:02:53;19.89;50.73
66722;SHT31;53633;49.932;10.884;2022-07-29T03:05:22;19.41;52.33
66722;SHT31;53633;49.932;10.884;2022-07-29T03:07:51;19.08;53.73
66722;SHT31;53633;49.932;10.884;2022-07-29T03:10:20;18.63;54.09
66722;SHT31;53633;49.932;10.884;2022-07-29T03:12:48;18.76;53.84
66722;SHT31;53633;49.932;10.884;2022-07-29T03:15:15;18.88;53.73
66722;SHT31;53633;49.932;10.884;2022-07-29T03:18:11;18.64;52.85
66722;SHT31;53633;49.932;10.884;2022-07-29T03:20:38;18.69;53.50
66722;SHT31;53633;49.932;10.884;2022-07-29T03:23:05;18.58;52.07
66722;SHT31;53633;49.932;10.884;2022-07-29T03:25:32;18.43;52.69
66722;SHT31;53633;49.932;10.884;2022-07-29T03:27:59;18.60;52.52
66722;SHT31;53633;49.932;10.884;2022-07-29T03:30:26;18.55;52.43
66722;SHT31;53633;49.932;10.884;2022-07-29T03:32:52;18.78;52.09
66722;SHT31;53633;49.932;10.884;2022-07-29T03:35:23;18.96;51.25
66722;SHT31;53633;49.932;10.884;2022-07-29T03:37:50;18.94;50.82
66722;SHT31;53633;49.932;10.884;2022-07-29T03:40:21;18.58;51.50
66722;SHT31;53633;49.932;10.884;2022-07-29T03:42:49;18.53;51.88
66722;SHT31;53633;49.932;10.884;2022-07-29T03:45:18;18.51;52.51
66722;SHT31;53633;49.932;10.884;2022-07-29T03:47:50;18.61;52.35
66722;SHT31;53633;49.932;10.884;2022-07-29T03:50:27;18.67;52.39
66722;SHT31;53633;49.932;10.884;2022-07-29T03:52:54;18.69;52.37
66722;SHT31;53633;49.932;10.884;2022-07-29T03:55:21;18.47;52.59
66722;SHT31;53633;49.932;10.884;2022-07-29T03:57:48;18.69;52.57
66722;SHT31;53633;49.932;10.884;2022-07-29T04:00:16;18.68;52.46
66722;SHT31;53633;49.932;10.884;2022-07-29T04:02:43;18.72;52.63
66722;SHT31;53633;49.932;10.884;2022-07-29T04:05:11;18.53;52.38
66722;SHT31;53633;49.932;10.884;2022-07-29T04:07:40;18.30;53.25
66722;SHT31;53633;49.932;10.884;2022-07-29T04:10:07;18.34;53.84
66722;SHT31;53633;49.932;10.884;2022-07-29T04:12:34;18.09;54.00
66722;SHT31;53633;49.932;10.884;2022-07-29T04:15:01;18.17;54.68
66722;SHT31;53633;49.932;10.884;2022-07-29T04:17:27;18.50;53.37
66722;SHT31;53633;49.932;10.884;2022-07-29T04:19:54;18.54;53.32
66722;SHT31;53633;49.932;10.884;2022-07-29T04:22:21;18.30;52.91
66722;SHT31;53633;49.932;10.884;2022-07-29T04:24:49;18.53;52.99
66722;SHT31;53633;49.932;10.884;2022-07-29T04:27:16;18.72;52.27
66722;SHT31;53633;49.932;10.884;2022-07-29T04:29:43;18.78;52.68
66722;SHT31;53633;49.932;10.884;2022-07-29T04:32:23;18.60;52.69
66722;SHT31;53633;49.932;10.884;2022-07-29T04:34:49;18.54;53.03
66722;SHT31;53633;49.932;10.884;2022-07-29T04:37:16;18.87;52.54
66722;SHT31;53633;49.932;10.884;2022-07-29T04:39:43;19.33;51.87
66722;SHT31;53633;49.932;10.884;2022-07-29T04:42:11;19.66;50.90
66722;SHT31;53633;49.932;10.884;2022-07-29T04:44:38;19.67;50.70
66722;SHT31;53633;49.932;10.884;2022-07-29T04:47:08;19.82;50.46
66722;SHT31;53633;49.932;10.884;2022-07-29T04:49:37;20.21;49.95
66722;SHT31;53633;49.932;10.884;2022-07-29T04:52:05;20.81;48.78
66722;SHT31;53633;49.932;10.884;2022-07-29T04:54:32;21.52;47.15
66722;SHT31;53633;49.932;10.884;2022-07-29T04:56:58;21.91;46.34
66722;SHT31;53633;49.932;10.884;2022-07-29T04:59:26;21.79;46.14
66722;SHT31;53633;49.932;10.884;2022-07-29T05:01:53;21.45;46.84
66722;SHT31;53633;49.932;10.884;2022-07-29T05:04:20;21.43;46.93
66722;SHT31;53633;49.932;10.884;2022-07-29T05:06:47;21.02;46.95
66722;SHT31;53633;49.932;10.884;2022-07-29T05:09:13;21.02;47.25
66722;SHT31;53633;49.932;10.884;2022-07-29T05:12:08;20.94;47.34
66722;SHT31;53633;49.932;10.884;2022-07-29T05:14:36;20.84;47.71
66722;SHT31;53633;49.932;10.884;2022-07-29T05:17:05;20.64;47.72
66722;SHT31;53633;49.932;10.884;2022-07-29T05:19:31;20.88;47.99
66722;SHT31;53633;49.932;10.884;2022-07-29T05:21:58;20.90;48.30
66722;SHT31;53633;49.932;10.884;2022-07-29T05:24:25;20.76;47.94
66722;SHT31;53633;49.932;10.884;2022-07-29T05:26:51;20.83;48.05
66722;SHT31;53633;49.932;10.884;2022-07-29T05:29:18;20.87;47.72
66722;SHT31;53633;49.932;10.884;2022-07-29T05:32:06;20.87;47.46
66722;SHT31;53633;49.932;10.884;2022-07-29T05:34:33;20.76;47.44
66722;SHT31;53633;49.932;10.884;2022-07-29T05:37:00;20.92;47.64
66722;SHT31;53633;49.932;10.884;2022-07-29T05:39:26;20.92;47.36
66722;SHT31;53633;49.932;10.884;2022-07-29T05:42:14;20.98;47.33
66722;SHT31;53633;49.932;10.884;2022-07-29T05:45:09;21.15;47.01
66722;SHT31;53633;49.932;10.884;2022-07-29T05:47:38;21.31;46.73
66722;SHT31;53633;49.932;10.884;2022-07-29T05:50:05;21.42;47.11
66722;SHT31;53633;49.932;10.884;2022-07-29T05:52:32;21.43;47.06
66722;SHT31;53633;49.932;10.884;2022-07-29T05:54:59;21.52;46.79
66722;SHT31;53633;49.932;10.884;2022-07-29T05:57:25;21.56;46.93
66722;SHT31;53633;49.932;10.884;2022-07-29T05:59:52;21.72;46.85
66722;SHT31;53633;49.932;10.884;2022-07-29T06:02:19;21.80;46.83
66722;SHT31;53633;49.932;10.884;2022-07-29T06:04:47;21.80;46.16
66722;SHT31;53633;49.932;10.884;2022-07-29T06:07:13;22.01;46.77
66722;SHT31;53633;49.932;10.884;2022-07-29T06:09:40;22.60;45.71
66722;SHT31;53633;49.932;10.884;2022-07-29T06:12:07;22.92;45.19
66722;SHT31;53633;49.932;10.884;2022-07-29T06:14:34;22.97;45.29
66722;SHT31;53633;49.932;10.884;2022-07-29T06:17:05;23.20;44.57
66722;SHT31;53633;49.932;10.884;2022-07-29T06:19:34;24.96;42.31
66722;SHT31;53633;49.932;10.884;2022-07-29T06:22:02;26.26;39.89
66722;SHT31;53633;49.932;10.884;2022-07-29T06:24:29;27.31;37.84
66722;SHT31;53633;49.932;10.884;2022-07-29T06:26:56;28.00;36.25
66722;SHT31;53633;49.932;10.884;2022-07-29T06:29:22;28.66;34.63
66722;SHT31;53633;49.932;10.884;2022-07-29T06:31:50;29.51;33.67
66722;SHT31;53633;49.932;10.884;2022-07-29T06:34:16;30.10;32.50
66722;SHT31;53633;49.932;10.884;2022-07-29T06:36:44;30.57;31.80
66722;SHT31;53633;49.932;10.884;2022-07-29T06:39:12;30.71;32.29
66722;SHT31;53633;49.932;10.884;2022-07-29T06:41:39;30.99;30.84
66722;SHT31;53633;49.932;10.884;2022-07-29T06:44:06;31.95;29.76
66722;SHT31;53633;49.932;10.884;2022-07-29T06:46:33;31.96;29.65
66722;SHT31;53633;49.932;10.884;2022-07-29T06:49:09;31.74;30.02
66722;SHT31;53633;49.932;10.884;2022-07-29T06:51:36;31.54;30.59
66722;SHT31;53633;49.932;10.884;2022-07-29T06:54:05;32.30;28.97
66722;SHT31;53633;49.932;10.884;2022-07-29T06:56:34;31.60;30.81
66722;SHT31;53633;49.932;10.884;2022-07-29T06:59:06;31.48;30.12
66722;SHT31;53633;49.932;10.884;2022-07-29T07:01:33;32.37;29.21
66722;SHT31;53633;49.932;10.884;2022-07-29T07:03:59;32.19;29.38
66722;SHT31;53633;49.932;10.884;2022-07-29T07:06:26;32.39;29.14
66722;SHT31;53633;49.932;10.884;2022-07-29T07:08:53;32.61;27.50
66722;SHT31;53633;49.932;10.884;2022-07-29T07:11:20;32.25;28.60
66722;SHT31;53633;49.932;10.884;2022-07-29T07:13:48;32.09;28.74
66722;SHT31;53633;49.932;10.884;2022-07-29T07:16:15;31.64;28.60
66722;SHT31;53633;49.932;10.884;2022-07-29T07:18:41;31.72;29.21
66722;SHT31;53633;49.932;10.884;2022-07-29T07:21:08;32.37;29.11
66722;SHT31;53633;49.932;10.884;2022-07-29T07:23:35;32.67;28.69
66722;SHT31;53633;49.932;10.884;2022-07-29T07:26:04;32.71;27.37
66722;SHT31;53633;49.932;10.884;2022-07-29T07:28:31;32.92;27.19
66722;SHT31;53633;49.932;10.884;2022-07-29T07:30:59;32.64;27.62
66722;SHT31;53633;49.932;10.884;2022-07-29T07:33:25;32.49;27.60
66722;SHT31;53633;49.932;10.884;2022-07-29T07:35:52;32.43;27.67
66722;SHT31;53633;49.932;10.884;2022-07-29T07:38:19;32.44;28.19
66722;SHT31;53633;49.932;10.884;2022-07-29T07:40:46;32.46;27.47
66722;SHT31;53633;49.932;10.884;2022-07-29T07:43:12;32.67;27.47
66722;SHT31;53633;49.932;10.884;2022-07-29T07:45:39;32.52;27.95
66722;SHT31;53633;49.932;10.884;2022-07-29T07:48:07;32.12;28.41
66722;SHT31;53633;49.932;10.884;2022-07-29T07:50:34;31.81;28.96
66722;SHT31;53633;49.932;10.884;2022-07-29T07:53:00;32.84;28.43
66722;SHT31;53633;49.932;10.884;2022-07-29T07:55:27;33.62;27.55
66722;SHT31;53633;49.932;10.884;2022-07-29T07:57:54;34.38;27.01
66722;SHT31;53633;49.932;10.884;2022-07-29T08:00:21;33.83;27.39
66722;SHT31;53633;49.932;10.884;2022-07-29T08:02:49;33.53;27.50
66722;SHT31;53633;49.932;10.884;2022-07-29T08:05:18;31.61;29.32
66722;SHT31;53633;49.932;10.884;2022-07-29T08:07:45;31.71;29.58
66722;SHT31;53633;49.932;10.884;2022-07-29T08:10:12;31.48;30.06
66722;SHT31;53633;49.932;10.884;2022-07-29T08:12:39;31.61;30.22
66722;SHT31;53633;49.932;10.884;2022-07-29T08:15:07;31.60;30.11
66722;SHT31;53633;49.932;10.884;2022-07-29T08:17:34;31.89;30.20
66722;SHT31;53633;49.932;10.884;2022-07-29T08:20:01;32.27;30.33
66722;SHT31;53633;49.932;10.884;2022-07-29T08:22:29;32.54;30.72
66722;SHT31;53633;49.932;10.884;2022-07-29T08:24:56;31.92;30.68
66722;SHT31;53633;49.932;10.884;2022-07-29T08:27:23;31.58;30.82
66722;SHT31;53633;49.932;10.884;2022-07-29T08:30:09;31.54;31.09
66722;SHT31;53633;49.932;10.884;2022-07-29T08:32:35;31.09;32.15
66722;SHT31;53633;49.932;10.884;2022-07-29T08:35:19;31.07;31.90
66722;SHT31;53633;49.932;10.884;2022-07-29T08:37:47;30.86;32.54
66722;SHT31;53633;49.932;10.884;2022-07-29T08:40:14;31.75;31.31
66722;SHT31;53633;49.932;10.884;2022-07-29T08:42:41;31.74;31.46
66722;SHT31;53633;49.932;10.884;2022-07-29T08:45:09;32.84;30.30
66722;SHT31;53633;49.932;10.884;2022-07-29T08:47:37;33.17;30.74
66722;SHT31;53633;49.932;10.884;2022-07-29T08:50:05;33.08;29.04
66722;SHT31;53633;49.932;10.884;2022-07-29T08:52:35;34.15;28.04
66722;SHT31;53633;49.932;10.884;2022-07-29T08:55:08;34.76;28.11
66722;SHT31;53633;49.932;10.884;2022-07-29T08:57:35;34.66;28.00
66722;SHT31;53633;49.932;10.884;2022-07-29T09:00:05;35.07;27.40
66722;SHT31;53633;49.932;10.884;2022-07-29T09:02:40;34.76;28.01
66722;SHT31;53633;49.932;10.884;2022-07-29T09:05:07;34.41;27.98
66722;SHT31;53633;49.932;10.884;2022-07-29T09:07:34;34.38;28.45
66722;SHT31;53633;49.932;10.884;2022-07-29T09:10:01;34.53;28.43
66722;SHT31;53633;49.932;10.884;2022-07-29T09:12:31;33.84;28.97
66722;SHT31;53633;49.932;10.884;2022-07-29T09:15:04;34.17;29.64
66722;SHT31;53633;49.932;10.884;2022-07-29T09:17:39;33.72;30.02
66722;SHT31;53633;49.932;10.884;2022-07-29T09:20:09;33.53;30.26
66722;SHT31;53633;49.932;10.884;2022-07-29T09:22:36;33.45;31.43
66722;SHT31;53633;49.932;10.884;2022-07-29T09:25:07;33.09;30.29
66722;SHT31;53633;49.932;10.884;2022-07-29T09:27:35;32.87;30.27
66722;SHT31;53633;49.932;10.884;2022-07-29T09:30:04;33.50;29.94
66722;SHT31;53633;49.932;10.884;2022-07-29T09:32:31;33.52;29.47
66722;SHT31;53633;49.932;10.884;2022-07-29T09:35:14;32.98;30.07
66722;SHT31;53633;49.932;10.884;2022-07-29T09:37:41;32.53;31.23
66722;SHT31;53633;49.932;10.884;2022-07-29T09:40:12;32.36;31.21
66722;SHT31;53633;49.932;10.884;2022-07-29T09:42:41;31.88;32.09
66722;SHT31;53633;49.932;10.884;2022-07-29T09:45:08;32.41;32.41
66722;SHT31;53633;49.932;10.884;2022-07-29T09:47:41;32.91;31.30
66722;SHT31;53633;49.932;10.884;2022-07-29T09:50:08;33.28;31.14
66722;SHT31;53633;49.932;10.884;2022-07-29T09:52:45;32.75;31.16
66722;SHT31;53633;49.932;10.884;2022-07-29T09:55:12;33.39;30.97
66722;SHT31;53633;49.932;10.884;2022-07-29T09:57:45;33.96;30.28
66722;SHT31;53633;49.932;10.884;2022-07-29T10:00:14;34.37;29.40
66722;SHT31;53633;49.932;10.884;2022-07-29T10:02:44;34.22;30.34
66722;SHT31;53633;49.932;10.884;2022-07-29T10:05:20;33.53;31.27
66722;SHT31;53633;49.932;10.884;2022-07-29T10:07:48;33.43;31.35
66722;SHT31;53633;49.932;10.884;2022-07-29T10:10:21;33.63;30.97
66722;SHT31;53633;49.932;10.884;2022-07-29T10:12:52;33.05;31.37
66722;SHT31;53633;49.932;10.884;2022-07-29T10:15:19;32.74;31.86
66722;SHT31;53633;49.932;10.884;2022-07-29T10:17:47;32.39;32.35
66722;SHT31;53633;49.932;10.884;2022-07-29T10:20:15;32.15;32.69
66722;SHT31;53633;49.932;10.884;2022-07-29T10:22:42;31.95;33.40
66722;SHT31;53633;49.932;10.884;2022-07-29T10:25:19;32.06;33.09
66722;SHT31;53633;49.932;10.884;2022-07-29T10:27:47;31.70;33.55
66722;SHT31;53633;49.932;10.884;2022-07-29T10:30:16;31.61;33.61
66722;SHT31;53633;49.932;10.884;2022-07-29T10:33:07;31.43;34.47
66722;SHT31;53633;49.932;10.884;2022-07-29T10:35:51;31.20;35.00
66722;SHT31;53633;49.932;10.884;2022-07-29T10:38:43;30.24;36.46
66722;SHT31;53633;49.932;10.884;2022-07-29T10:41:23;29.75;37.20
66722;SHT31;53633;49.932;10.884;2022-07-29T10:44:14;29.77;37.99
66722;SHT31;53633;49.932;10.884;2022-07-29T10:46:46;29.11;39.98
66722;SHT31;53633;49.932;10.884;2022-07-29T10:49:16;28.94;40.22
66722;SHT31;53633;49.932;10.884;2022-07-29T10:52:04;28.97;40.62
66722;SHT31;53633;49.932;10.884;2022-07-29T10:54:46;28.97;40.48
66722;SHT31;53633;49.932;10.884;2022-07-29T10:57:21;28.70;40.13
66722;SHT31;53633;49.932;10.884;2022-07-29T11:00:29;28.59;40.34
66722;SHT31;53633;49.932;10.884;2022-07-29T11:02:58;28.48;40.72
66722;SHT31;53633;49.932;10.884;2022-07-29T11:05:25;28.48;41.40
66722;SHT31;53633;49.932;10.884;2022-07-29T11:08:23;28.28;42.06
66722;SHT31;53633;49.932;10.884;2022-07-29T11:14:03;27.93;42.31
66722;SHT31;53633;49.932;10.884;2022-07-29T11:17:00;27.96;42.40
66722;SHT31;53633;49.932;10.884;2022-07-29T11:19:29;27.94;42.34
66722;SHT31;53633;49.932;10.884;2022-07-29T11:21:56;27.93;42.13
66722;SHT31;53633;49.932;10.884;2022-07-29T11:24:43;28.24;42.21
66722;SHT31;53633;49.932;10.884;2022-07-29T11:27:18;28.26;42.35
66722;SHT31;53633;49.932;10.884;2022-07-29T11:29:53;28.15;42.87
66722;SHT31;53633;49.932;10.884;2022-07-29T11:32:22;28.31;42.93
66722;SHT31;53633;49.932;10.884;2022-07-29T11:35:11;28.62;42.52
66722;SHT31;53633;49.932;10.884;2022-07-29T11:37:44;28.51;42.89
66722;SHT31;53633;49.932;10.884;2022-07-29T11:40:18;28.41;42.92
66722;SHT31;53633;49.932;10.884;2022-07-29T11:42:49;28.42;42.27
66722;SHT31;53633;49.932;10.884;2022-07-29T11:45:23;28.26;42.78
66722;SHT31;53633;49.932;10.884;2022-07-29T11:48:15;28.67;41.80
66722;SHT31;53633;49.932;10.884;2022-07-29T11:50:57;28.70;42.36
66722;SHT31;53633;49.932;10.884;2022-07-29T11:53:24;29.10;41.31
66722;SHT31;53633;49.932;10.884;2022-07-29T11:55:55;29.24;42.15
66722;SHT31;53633;49.932;10.884;2022-07-29T11:58:24;29.08;41.61
66722;SHT31;53633;49.932;10.884;2022-07-29T12:00:52;28.77;42.70
66722;SHT31;53633;49.932;10.884;2022-07-29T12:03:24;28.60;41.83
66722;SHT31;53633;49.932;10.884;2022-07-29T12:06:10;28.79;42.51
66722;SHT31;53633;49.932;10.884;2022-07-29T12:08:40;29.11;43.06
66722;SHT31;53633;49.932;10.884;2022-07-29T12:11:15;29.28;41.47
66722;SHT31;53633;49.932;10.884;2022-07-29T12:13:42;29.28;42.30
66722;SHT31;53633;49.932;10.884;2022-07-29T12:16:08;29.04;43.19
66722;SHT31;53633;49.932;10.884;2022-07-29T12:18:40;29.04;42.44
66722;SHT31;53633;49.932;10.884;2022-07-29T12:21:08;28.74;41.64
66722;SHT31;53633;49.932;10.884;2022-07-29T12:23:38;28.74;42.04
66722;SHT31;53633;49.932;10.884;2022-07-29T12:26:05;28.62;42.25
66722;SHT31;53633;49.932;10.884;2022-07-29T12:28:36;28.57;42.29
66722;SHT31;53633;49.932;10.884;2022-07-29T12:31:04;28.66;42.13
66722;SHT31;53633;49.932;10.884;2022-07-29T12:33:31;28.93;42.59
66722;SHT31;53633;49.932;10.884;2022-07-29T12:35:59;28.99;41.76
66722;SHT31;53633;49.932;10.884;2022-07-29T12:38:44;29.07;41.89
66722;SHT31;53633;49.932;10.884;2022-07-29T12:41:12;28.90;41.95
66722;SHT31;53633;49.932;10.884;2022-07-29T12:43:52;28.91;42.73
66722;SHT31;53633;49.932;10.884;2022-07-29T12:46:18;28.89;42.80
66722;SHT31;53633;49.932;10.884;2022-07-29T12:48:50;29.03;41.72
66722;SHT31;53633;49.932;10.884;2022-07-29T12:51:17;29.03;42.19
66722;SHT31;53633;49.932;10.884;2022-07-29T12:54:04;29.10;41.96
66722;SHT31;53633;49.932;10.884;2022-07-29T12:56:31;28.96;42.17
66722;SHT31;53633;49.932;10.884;2022-07-29T12:59:16;29.21;41.59
66722;SHT31;53633;49.932;10.884;2022-07-29T13:01:43;29.14;41.81
66722;SHT31;53633;49.932;10.884;2022-07-29T13:04:10;29.24;41.86
66722;SHT31;53633;49.932;10.884;2022-07-29T13:06:38;29.27;41.87
66722;SHT31;53633;49.932;10.884;2022-07-29T13:09:10;29.06;41.86
66722;SHT31;53633;49.932;10.884;2022-07-29T13:11:39;29.35;41.37
66722;SHT31;53633;49.932;10.884;2022-07-29T13:14:20;29.63;40.43
66722;SHT31;53633;49.932;10.884;2022-07-29T13:17:03;29.79;40.99
66722;SHT31;53633;49.932;10.884;2022-07-29T13:19:38;29.76;40.12
66722;SHT31;53633;49.932;10.884;2022-07-29T13:22:06;29.82;40.12
66722;SHT31;53633;49.932;10.884;2022-07-29T13:24:44;29.69;40.14
66722;SHT31;53633;49.932;10.884;2022-07-29T13:27:14;29.56;40.50
66722;SHT31;53633;49.932;10.884;2022-07-29T13:29:40;29.39;41.10
66722;SHT31;53633;49.932;10.884;2022-07-29T13:32:07;29.37;43.11
66722;SHT31;53633;49.932;10.884;2022-07-29T13:34:37;29.14;43.60
66722;SHT31;53633;49.932;10.884;2022-07-29T13:37:04;29.03;44.05
66722;SHT31;53633;49.932;10.884;2022-07-29T13:39:30;29.00;44.74
66722;SHT31;53633;49.932;10.884;2022-07-29T13:42:06;28.89;44.67
66722;SHT31;53633;49.932;10.884;2022-07-29T13:44:36;28.83;44.39
66722;SHT31;53633;49.932;10.884;2022-07-29T13:47:03;28.67;44.76
66722;SHT31;53633;49.932;10.884;2022-07-29T13:49:30;28.84;43.60
66722;SHT31;53633;49.932;10.884;2022-07-29T13:51:56;28.89;43.42
66722;SHT31;53633;49.932;10.884;2022-07-29T13:54:24;28.76;43.39
66722;SHT31;53633;49.932;10.884;2022-07-29T13:56:52;28.87;42.89
66722;SHT31;53633;49.932;10.884;2022-07-29T13:59:22;29.04;42.62
66722;SHT31;53633;49.932;10.884;2022-07-29T14:01:48;29.07;42.39
66722;SHT31;53633;49.932;10.884;2022-07-29T14:04:15;28.91;42.26
66722;SHT31;53633;49.932;10.884;2022-07-29T14:06:42;28.87;42.51
66722;SHT31;53633;49.932;10.884;2022-07-29T14:09:09;28.90;41.91
66722;SHT31;53633;49.932;10.884;2022-07-29T14:11:35;28.89;42.11
66722;SHT31;53633;49.932;10.884;2022-07-29T14:14:02;29.01;42.05
66722;SHT31;53633;49.932;10.884;2022-07-29T14:16:30;29.10;42.25
66722;SHT31;53633;49.932;10.884;2022-07-29T14:18:57;29.04;42.27
66722;SHT31;53633;49.932;10.884;2022-07-29T14:21:23;29.07;42.08
66722;SHT31;53633;49.932;10.884;2022-07-29T14:23:51;29.01;41.87
66722;SHT31;53633;49.932;10.884;2022-07-29T14:26:19;28.96;42.22
66722;SHT31;53633;49.932;10.884;2022-07-29T14:28:49;28.51;42.26
66722;SHT31;53633;49.932;10.884;2022-07-29T14:31:16;28.77;42.31
66722;SHT31;53633;49.932;10.884;2022-07-29T14:33:45;28.83;42.65
66722;SHT31;53633;49.932;10.884;2022-07-29T14:36:15;28.76;42.38
66722;SHT31;53633;49.932;10.884;2022-07-29T14:38:41;28.56;43.05
66722;SHT31;53633;49.932;10.884;2022-07-29T14:41:08;28.45;43.87
66722;SHT31;53633;49.932;10.884;2022-07-29T14:43:35;28.29;44.90
66722;SHT31;53633;49.932;10.884;2022-07-29T14:46:04;28.18;45.79
66722;SHT31;53633;49.932;10.884;2022-07-29T14:48:34;27.87;46.61
66722;SHT31;53633;49.932;10.884;2022-07-29T14:51:02;28.02;46.78
66722;SHT31;53633;49.932;10.884;2022-07-29T14:53:30;28.02;46.77
66722;SHT31;53633;49.932;10.884;2022-07-29T14:55:58;27.80;46.16
66722;SHT31;53633;49.932;10.884;2022-07-29T14:58:45;27.33;45.92
66722;SHT31;53633;49.932;10.884;2022-07-29T15:01:17;27.09;46.96
66722;SHT31;53633;49.932;10.884;2022-07-29T15:03:44;26.94;47.32
66722;SHT31;53633;49.932;10.884;2022-07-29T15:06:12;26.71;48.72
66722;SHT31;53633;49.932;10.884;2022-07-29T15:08:39;26.58;49.84
66722;SHT31;53633;49.932;10.884;2022-07-29T15:11:05;26.36;51.25
66722;SHT31;53633;49.932;10.884;2022-07-29T15:13:33;26.26;51.93
66722;SHT31;53633;49.932;10.884;2022-07-29T15:16:00;26.01;50.93
66722;SHT31;53633;49.932;10.884;2022-07-29T15:18:26;25.58;52.60
66722;SHT31;53633;49.932;10.884;2022-07-29T15:20:53;24.82;55.26
66722;SHT31;53633;49.932;10.884;2022-07-29T15:23:21;24.67;55.71
66722;SHT31;53633;49.932;10.884;2022-07-29T15:25:48;23.55;59.06
66722;SHT31;53633;49.932;10.884;2022-07-29T15:28:14;23.25;59.49
66722;SHT31;53633;49.932;10.884;2022-07-29T15:31:09;22.82;60.02
66722;SHT31;53633;49.932;10.884;2022-07-29T15:33:36;22.60;59.68
66722;SHT31;53633;49.932;10.884;2022-07-29T15:36:05;22.72;59.04
66722;SHT31;53633;49.932;10.884;2022-07-29T15:38:34;22.52;60.17